Time;durP1;ratioP1;P1;durP2;ratioP2;P2;SDS_P1;SDS_P2;PMS_P1;PMS_P2;Temp;Humidity;BMP_temperature;BMP_pressure;BME280_temperature;BME280_humidity;BME280_pressure;Samples;Min_cycle;Max_cycle;Signal;HPM_P1;HPM_P2
2021/03/06 00:00:26;;;;;;;14.48;7.22;;;1.60;98.30;;;;;;5167443;23;20670;-80
2021/03/06 00:02:28;;;;;;;11.18;7.03;;;1.50;98.30;;;;;;5168571;23;20208;-80
2021/03/06 00:04:30;;;;;;;12.90;8.15;;;1.50;98.30;;;;;;5168540;23;20209;-80
2021/03/06 00:06:32;;;;;;;9.35;6.65;;;1.40;98.30;;;;;;5175708;23;20197;-80
2021/03/06 00:08:34;;;;;;;10.75;6.95;;;1.40;98.30;;;;;;5166550;23;20208;-80
2021/03/06 00:10:37;;;;;;;11.57;7.28;;;1.30;98.30;;;;;;5166148;23;20203;-80
2021/03/06 00:12:39;;;;;;;10.60;7.45;;;1.30;98.30;;;;;;5168249;23;20207;-80
2021/03/06 00:14:41;;;;;;;9.80;6.78;;;1.30;98.30;;;;;;5168955;23;20212;-79
2021/03/06 00:16:43;;;;;;;12.25;7.03;;;1.30;98.30;;;;;;5167925;23;20209;-80
2021/03/06 00:18:45;;;;;;;12.10;6.53;;;1.30;98.30;;;;;;5169800;23;20298;-80
2021/03/06 00:20:47;;;;;;;12.85;7.22;;;1.30;98.30;;;;;;5177393;23;20645;-80
2021/03/06 00:22:52;;;;;;;14.77;7.95;;;1.30;98.30;;;;;;5177874;23;20225;-79
2021/03/06 00:24:55;;;;;;;14.90;7.80;;;1.30;98.30;;;;;;5171511;23;20257;-79
2021/03/06 00:26:58;;;;;;;15.43;7.13;;;1.30;98.30;;;;;;5179102;23;20292;-81
2021/03/06 00:29:00;;;;;;;13.02;7.88;;;1.30;98.30;;;;;;5179641;23;20202;-79
2021/03/06 00:31:02;;;;;;;12.20;7.93;;;1.30;98.30;;;;;;5179103;23;20210;-79
2021/03/06 00:33:05;;;;;;;13.18;7.43;;;1.20;98.30;;;;;;5171024;23;21239;-79
2021/03/06 00:35:09;;;;;;;12.88;7.50;;;1.20;98.30;;;;;;5178367;23;20798;-80
2021/03/06 00:37:11;;;;;;;11.30;7.25;;;1.20;98.30;;;;;;5177599;23;20205;-80
2021/03/06 00:39:12;;;;;;;11.13;7.43;;;1.10;98.30;;;;;;5173433;23;20206;-80
2021/03/06 00:41:15;;;;;;;13.02;6.90;;;1.00;98.30;;;;;;5172753;23;20560;-79
2021/03/06 00:43:17;;;;;;;19.02;7.43;;;1.00;98.30;;;;;;5173622;23;20206;-80
2021/03/06 00:45:19;;;;;;;8.82;6.65;;;1.00;98.30;;;;;;5183329;23;20206;-79
2021/03/06 00:47:21;;;;;;;9.25;6.80;;;0.90;98.30;;;;;;5179464;23;20203;-81
2021/03/06 00:49:23;;;;;;;10.65;6.28;;;0.90;98.30;;;;;;5174995;23;20203;-80
2021/03/06 00:51:26;;;;;;;11.30;7.22;;;1.00;98.30;;;;;;5181882;23;20207;-80
2021/03/06 00:53:40;;;;;;;13.98;7.00;;;1.00;98.30;;;;;;5183614;23;20222;-81
2021/03/06 00:55:42;;;;;;;9.75;6.20;;;1.00;98.30;;;;;;5177135;23;20932;-80
2021/03/06 00:57:44;;;;;;;7.25;6.15;;;1.00;98.30;;;;;;5183721;23;20204;-81
2021/03/06 00:59:46;;;;;;;12.95;6.43;;;1.00;98.30;;;;;;5184119;23;20294;-81
2021/03/06 01:01:48;;;;;;;16.90;9.00;;;1.00;98.30;;;;;;5184490;23;20203;-79
2021/03/06 01:03:50;;;;;;;18.60;12.75;;;1.10;98.30;;;;;;5174120;23;20699;-79
2021/03/06 01:05:52;;;;;;;10.88;7.50;;;1.10;98.30;;;;;;5181321;23;20204;-81
2021/03/06 01:07:54;;;;;;;9.05;6.55;;;1.00;98.30;;;;;;5181658;23;20278;-80
2021/03/06 01:09:56;;;;;;;11.27;6.18;;;1.00;98.30;;;;;;5182339;23;20210;-80
2021/03/06 01:11:58;;;;;;;12.10;6.15;;;1.00;98.30;;;;;;5183149;23;20198;-81
2021/03/06 01:14:00;;;;;;;15.98;6.55;;;1.00;98.30;;;;;;5173504;23;20206;-80
2021/03/06 01:16:04;;;;;;;9.98;5.90;;;1.00;98.30;;;;;;5174074;23;20229;-79
2021/03/06 01:18:08;;;;;;;11.85;5.90;;;1.00;98.30;;;;;;5182209;23;20201;-81
2021/03/06 01:20:11;;;;;;;9.88;5.95;;;0.90;98.30;;;;;;5173610;23;20577;-80
2021/03/06 01:22:13;;;;;;;8.90;5.95;;;0.90;98.30;;;;;;5183240;23;20704;-81
2021/03/06 01:24:15;;;;;;;10.40;5.93;;;0.90;98.30;;;;;;5174008;23;20216;-80
2021/03/06 01:26:17;;;;;;;12.48;6.18;;;0.90;98.30;;;;;;5173235;23;20209;-80
2021/03/06 01:28:19;;;;;;;11.43;6.25;;;0.90;98.30;;;;;;5173469;23;20253;-80
2021/03/06 01:30:22;;;;;;;10.45;5.97;;;0.90;98.30;;;;;;5174381;23;20209;-79
2021/03/06 01:32:25;;;;;;;8.90;6.00;;;0.90;98.30;;;;;;5181965;23;20203;-80
2021/03/06 01:34:29;;;;;;;12.40;8.00;;;0.90;98.30;;;;;;5180725;23;20312;-80
2021/03/06 01:36:32;;;;;;;10.10;5.80;;;0.90;98.30;;;;;;5180870;23;20509;-80
2021/03/06 01:38:34;;;;;;;10.85;5.80;;;0.90;98.30;;;;;;5172085;23;20218;-80
2021/03/06 01:40:37;;;;;;;8.98;5.80;;;0.90;98.30;;;;;;5180785;23;20203;-80
2021/03/06 01:42:40;;;;;;;12.02;6.10;;;0.90;98.30;;;;;;5181260;23;20249;-80
2021/03/06 01:44:42;;;;;;;8.50;5.57;;;0.90;98.30;;;;;;5181491;23;20206;-80
2021/03/06 01:46:44;;;;;;;11.65;5.38;;;1.00;98.30;;;;;;5172711;23;20218;-80
2021/03/06 01:48:46;;;;;;;12.70;5.68;;;1.10;98.30;;;;;;5181548;23;20281;-81
2021/03/06 01:50:50;;;;;;;12.95;6.40;;;1.10;98.30;;;;;;5180706;23;20671;-81
2021/03/06 01:52:52;;;;;;;9.30;5.63;;;1.10;98.30;;;;;;5179638;23;20207;-81
2021/03/06 01:54:57;;;;;;;10.38;6.38;;;1.10;98.30;;;;;;5170593;23;20205;-81
2021/03/06 01:56:59;;;;;;;9.23;6.57;;;1.00;98.30;;;;;;5171512;23;20518;-81
2021/03/06 01:59:01;;;;;;;14.55;6.35;;;0.90;98.30;;;;;;5171806;23;20292;-81
2021/03/06 02:01:03;;;;;;;12.68;7.43;;;0.90;98.30;;;;;;5172397;23;20214;-80
2021/03/06 02:03:06;;;;;;;10.32;6.43;;;0.90;98.30;;;;;;5181753;23;20213;-80
2021/03/06 02:05:10;;;;;;;16.55;7.03;;;0.80;98.30;;;;;;5180466;23;20691;-80
2021/03/06 02:07:12;;;;;;;13.90;6.38;;;0.70;98.30;;;;;;5172341;23;20207;-81
2021/03/06 02:09:14;;;;;;;13.23;6.70;;;0.70;98.30;;;;;;5174912;23;20634;-80
2021/03/06 02:11:25;;;;;;;9.93;6.03;;;0.60;98.30;;;;;;5180416;23;20586;-79
2021/03/06 02:13:43;;;;;;;11.00;5.60;;;0.60;98.30;;;;;;5179613;23;20201;-80
2021/03/06 02:15:59;;;;;;;10.20;5.75;;;0.50;98.30;;;;;;5174424;23;20200;-80
2021/03/06 02:18:10;;;;;;;9.77;5.63;;;0.50;98.30;;;;;;5165532;23;20265;-80
2021/03/06 02:20:39;;;;;;;8.98;5.70;;;0.50;98.30;;;;;;5165522;23;20208;-80
2021/03/06 02:23:10;;;;;;;12.57;7.93;;;0.50;98.30;;;;;;5168517;23;20575;-79
2021/03/06 02:25:32;;;;;;;9.20;5.80;;;0.60;98.30;;;;;;5171040;23;20205;-80
2021/03/06 02:27:45;;;;;;;11.63;5.80;;;0.60;98.30;;;;;;5179137;23;20280;-80
2021/03/06 02:29:52;;;;;;;10.50;5.72;;;0.60;98.30;;;;;;5171063;23;20206;-80
2021/03/06 02:31:55;;;;;;;8.65;5.55;;;0.70;98.30;;;;;;5171406;23;20706;-81
2021/03/06 02:34:03;;;;;;;17.77;10.70;;;0.70;98.30;;;;;;5181474;23;20265;-80
2021/03/06 02:36:10;;;;;;;19.67;12.55;;;0.90;98.30;;;;;;5173859;23;20218;-80
2021/03/06 02:38:14;;;;;;;8.50;5.18;;;1.30;98.30;;;;;;5167697;23;20215;-80
2021/03/06 02:40:17;;;;;;;9.00;5.35;;;1.40;98.30;;;;;;5166296;23;20678;-80
2021/03/06 02:42:23;;;;;;;10.68;6.50;;;1.20;98.30;;;;;;5166880;23;20201;-80
2021/03/06 02:44:29;;;;;;;6.88;4.45;;;1.10;98.30;;;;;;5166886;23;20211;-80
2021/03/06 02:46:34;;;;;;;10.77;5.30;;;1.00;98.30;;;;;;5175359;23;20879;-80
2021/03/06 02:48:37;;;;;;;11.50;5.50;;;1.00;98.30;;;;;;5166493;23;20282;-80
2021/03/06 02:50:39;;;;;;;8.48;5.40;;;1.00;98.30;;;;;;5166631;23;20210;-81
2021/03/06 02:52:41;;;;;;;11.35;6.07;;;1.00;98.30;;;;;;5167260;23;20211;-81
2021/03/06 02:54:43;;;;;;;9.75;6.20;;;1.10;98.30;;;;;;5166221;23;20202;-81
2021/03/06 02:56:45;;;;;;;9.02;5.07;;;1.10;98.30;;;;;;5174808;23;20207;-81
2021/03/06 02:59:06;;;;;;;9.40;4.90;;;1.10;98.30;;;;;;5175230;23;20226;-80
2021/03/06 03:01:12;;;;;;;13.25;5.68;;;1.10;98.30;;;;;;5175073;23;20284;-80
2021/03/06 03:03:29;;;;;;;9.05;5.10;;;1.00;98.30;;;;;;5166916;23;20208;-80
2021/03/06 03:05:40;;;;;;;11.05;4.70;;;1.10;98.30;;;;;;5175654;23;20212;-81
2021/03/06 03:07:49;;;;;;;8.50;4.68;;;1.20;98.30;;;;;;5169236;23;20201;-81
2021/03/06 03:09:59;;;;;;;8.55;5.20;;;1.20;98.30;;;;;;5169785;23;20688;-81
2021/03/06 03:12:04;;;;;;;5.65;4.20;;;1.20;98.30;;;;;;5178841;23;20217;-80
2021/03/06 03:14:09;;;;;;;7.03;3.78;;;1.20;98.30;;;;;;5172196;23;20227;-80
2021/03/06 03:16:17;;;;;;;5.65;4.32;;;1.20;98.30;;;;;;5170995;23;20208;-80
2021/03/06 03:18:24;;;;;;;10.10;5.10;;;1.20;98.30;;;;;;5171273;23;20562;-80
2021/03/06 03:20:33;;;;;;;9.27;4.90;;;1.20;98.30;;;;;;5178969;23;20329;-81
2021/03/06 03:22:38;;;;;;;7.75;4.10;;;1.20;98.30;;;;;;5179200;23;20202;-81
2021/03/06 03:24:42;;;;;;;8.00;5.28;;;1.20;98.30;;;;;;5169753;23;20308;-80
2021/03/06 03:26:47;;;;;;;6.82;4.45;;;1.20;98.30;;;;;;5178230;23;20278;-81
2021/03/06 03:28:50;;;;;;;11.68;4.57;;;1.30;98.30;;;;;;5169328;23;20662;-81
2021/03/06 03:30:52;;;;;;;9.40;6.35;;;1.30;98.30;;;;;;5169419;23;20207;-81
2021/03/06 03:33:00;;;;;;;10.38;4.75;;;1.40;98.30;;;;;;5168935;23;20209;-81
2021/03/06 03:35:05;;;;;;;11.48;4.95;;;1.50;98.30;;;;;;5169175;23;20208;-81
2021/03/06 03:37:11;;;;;;;7.18;4.40;;;1.50;98.30;;;;;;5169202;23;20208;-81
2021/03/06 03:39:13;;;;;;;14.40;5.30;;;1.60;98.30;;;;;;5168839;23;20247;-80
2021/03/06 03:41:16;;;;;;;6.60;4.47;;;1.60;98.30;;;;;;5170458;23;20288;-80
2021/03/06 03:43:18;;;;;;;8.43;4.32;;;1.60;98.30;;;;;;5172675;23;20686;-80
2021/03/06 03:45:22;;;;;;;5.95;3.63;;;1.60;98.30;;;;;;5174447;23;20209;-81
2021/03/06 03:47:24;;;;;;;7.80;4.35;;;1.60;98.30;;;;;;5180482;23;20208;-80
2021/03/06 03:49:28;;;;;;;6.03;4.13;;;1.60;98.30;;;;;;5179503;23;20212;-80
2021/03/06 03:51:32;;;;;;;10.32;4.97;;;1.50;98.30;;;;;;5171834;23;20282;-80
2021/03/06 03:53:34;;;;;;;7.97;4.07;;;1.50;98.30;;;;;;5180934;23;20201;-81
2021/03/06 03:55:41;;;;;;;12.88;4.43;;;1.50;98.30;;;;;;5172892;23;20316;-82
2021/03/06 03:57:44;;;;;;;7.63;4.25;;;1.60;98.30;;;;;;5173562;23;20209;-81
2021/03/06 03:59:46;;;;;;;11.52;5.13;;;1.60;98.30;;;;;;5173180;23;20272;-80
2021/03/06 04:01:48;;;;;;;8.55;3.70;;;1.60;98.30;;;;;;5175270;23;20251;-81
2021/03/06 04:03:50;;;;;;;7.35;4.35;;;1.60;98.30;;;;;;5173269;23;20830;-80
2021/03/06 04:05:53;;;;;;;6.65;3.90;;;1.60;98.30;;;;;;5173809;23;20295;-81
2021/03/06 04:07:56;;;;;;;5.40;3.70;;;1.70;98.30;;;;;;5173235;23;20618;-80
2021/03/06 04:09:58;;;;;;;8.30;3.88;;;1.70;98.30;;;;;;5172575;23;20258;-81
2021/03/06 04:12:00;;;;;;;12.02;4.35;;;1.80;98.30;;;;;;5180611;23;20235;-80
2021/03/06 04:14:02;;;;;;;6.55;4.00;;;1.80;98.30;;;;;;5172338;23;20209;-81
2021/03/06 04:16:05;;;;;;;7.63;4.35;;;1.70;98.30;;;;;;5181077;23;20251;-81
2021/03/06 04:18:08;;;;;;;8.25;4.00;;;1.80;98.30;;;;;;5181183;23;20241;-81
2021/03/06 04:20:14;;;;;;;6.28;3.63;;;1.70;98.30;;;;;;5181049;23;20262;-80
2021/03/06 04:22:16;;;;;;;10.55;4.40;;;1.80;98.30;;;;;;5171771;23;20254;-81
2021/03/06 04:24:18;;;;;;;8.70;4.25;;;1.80;98.30;;;;;;5171816;23;20240;-81
2021/03/06 04:26:24;;;;;;;5.90;3.90;;;1.80;98.30;;;;;;5170955;23;20305;-81
2021/03/06 04:28:27;;;;;;;7.88;3.97;;;1.90;98.30;;;;;;5178424;23;20210;-80
2021/03/06 04:30:29;;;;;;;9.20;4.22;;;1.90;98.30;;;;;;5169579;23;20205;-80
2021/03/06 04:32:32;;;;;;;8.77;4.10;;;1.90;98.30;;;;;;5178097;23;20201;-81
2021/03/06 04:34:34;;;;;;;10.63;4.35;;;2.00;98.30;;;;;;5170454;23;20672;-81
2021/03/06 04:36:36;;;;;;;11.65;4.90;;;2.00;98.30;;;;;;5170214;23;20219;-82
2021/03/06 04:38:38;;;;;;;8.63;4.28;;;2.00;98.30;;;;;;5169709;23;20212;-81
2021/03/06 04:40:40;;;;;;;7.32;4.20;;;2.00;98.30;;;;;;5178103;23;20200;-81
2021/03/06 04:42:42;;;;;;;8.93;4.20;;;2.00;98.30;;;;;;5169737;23;20593;-80
2021/03/06 04:44:44;;;;;;;9.45;6.20;;;2.00;98.30;;;;;;5178856;23;20225;-81
2021/03/06 04:46:46;;;;;;;7.80;4.05;;;2.10;98.30;;;;;;5179135;23;20201;-80
2021/03/06 04:48:48;;;;;;;8.05;3.80;;;2.10;98.30;;;;;;5171158;23;20209;-82
2021/03/06 04:50:50;;;;;;;7.95;4.03;;;2.10;98.30;;;;;;5169445;23;20205;-80
2021/03/06 04:52:53;;;;;;;10.85;5.10;;;2.20;98.30;;;;;;5178672;23;20201;-81
2021/03/06 04:54:55;;;;;;;6.40;3.83;;;2.30;98.30;;;;;;5178703;23;20205;-80
2021/03/06 04:56:57;;;;;;;9.40;5.95;;;2.30;98.30;;;;;;5169917;23;20205;-81
2021/03/06 04:58:59;;;;;;;7.05;4.30;;;2.30;98.30;;;;;;5179637;23;20205;-80
2021/03/06 05:01:01;;;;;;;10.13;5.10;;;2.20;98.30;;;;;;5179113;23;20279;-80
2021/03/06 05:03:03;;;;;;;10.77;4.70;;;2.30;98.30;;;;;;5177643;23;20207;-80
2021/03/06 05:05:07;;;;;;;12.07;5.90;;;2.30;98.30;;;;;;5169580;23;20209;-80
2021/03/06 05:07:09;;;;;;;10.15;5.32;;;2.30;98.30;;;;;;5170198;23;20201;-80
2021/03/06 05:09:11;;;;;;;9.05;5.50;;;2.30;98.30;;;;;;5169885;23;20213;-80
2021/03/06 05:11:12;;;;;;;6.00;5.20;;;2.30;98.30;;;;;;5177909;23;20216;-82
2021/03/06 05:13:15;;;;;;;13.15;6.20;;;2.40;98.30;;;;;;5170564;23;20212;-80
2021/03/06 05:15:17;;;;;;;10.85;5.90;;;2.40;98.30;;;;;;5171316;23;20692;-81
2021/03/06 05:17:19;;;;;;;8.75;5.60;;;2.40;98.30;;;;;;5180869;23;20209;-81
2021/03/06 05:19:21;;;;;;;9.10;6.93;;;2.40;98.30;;;;;;5172414;23;20208;-81
2021/03/06 05:21:23;;;;;;;11.45;6.55;;;2.40;98.30;;;;;;5171313;23;20343;-81
2021/03/06 05:23:25;;;;;;;9.90;7.05;;;2.40;98.30;;;;;;5173178;23;20215;-80
2021/03/06 05:25:26;;;;;;;10.73;6.40;;;2.40;98.30;;;;;;5171239;23;20205;-80
2021/03/06 05:27:28;;;;;;;11.23;6.70;;;2.40;98.30;;;;;;5173673;23;20209;-79
2021/03/06 05:29:32;;;;;;;11.98;6.75;;;2.40;98.30;;;;;;5181306;23;20201;-81
2021/03/06 05:31:34;;;;;;;39.90;21.63;;;2.40;98.30;;;;;;5179621;23;20211;-81
2021/03/06 05:33:36;;;;;;;11.20;7.78;;;2.50;98.30;;;;;;5180760;23;20702;-81
2021/03/06 05:35:38;;;;;;;11.35;7.32;;;2.50;98.30;;;;;;5173397;23;20209;-81
2021/03/06 05:37:40;;;;;;;17.80;7.72;;;2.50;98.30;;;;;;5175206;23;20209;-81
2021/03/06 05:39:42;;;;;;;9.15;7.00;;;2.50;98.30;;;;;;5173409;23;20205;-82
2021/03/06 05:41:44;;;;;;;9.60;7.40;;;2.40;98.30;;;;;;5172646;23;20215;-81
2021/03/06 05:43:46;;;;;;;15.23;8.40;;;2.40;98.30;;;;;;5173159;23;20258;-80
2021/03/06 05:45:49;;;;;;;17.73;7.90;;;2.50;98.30;;;;;;5170698;23;20278;-80
2021/03/06 05:47:52;;;;;;;10.18;7.82;;;2.60;98.30;;;;;;5174067;23;20212;-81
2021/03/06 05:49:54;;;;;;;13.57;8.55;;;2.70;98.30;;;;;;5172795;23;20212;-81
2021/03/06 05:51:57;;;;;;;8.73;6.90;;;2.70;98.30;;;;;;5173563;23;20699;-82
2021/03/06 05:54:01;;;;;;;9.65;7.30;;;2.70;98.30;;;;;;5171816;23;20201;-81
2021/03/06 05:56:05;;;;;;;10.20;7.03;;;2.80;98.30;;;;;;5179564;23;20204;-80
2021/03/06 05:58:08;;;;;;;14.32;7.30;;;2.80;98.30;;;;;;5177058;23;20205;-81
2021/03/06 06:00:11;;;;;;;16.08;7.47;;;2.80;98.30;;;;;;5178370;23;20199;-81
2021/03/06 06:02:17;;;;;;;13.55;6.40;;;2.90;98.30;;;;;;5178220;23;20723;-80
2021/03/06 06:04:19;;;;;;;9.27;6.53;;;3.00;98.30;;;;;;5169860;23;20205;-80
2021/03/06 06:06:26;;;;;;;13.30;7.10;;;2.90;98.30;;;;;;5156665;22;20583;-82
2021/03/06 06:08:34;;;;;;;11.25;6.63;;;2.90;98.30;;;;;;5124891;23;20202;-83
2021/03/06 06:10:36;;;;;;;8.73;6.45;;;3.00;98.30;;;;;;5124296;23;20285;-82
2021/03/06 06:12:41;;;;;;;9.45;6.35;;;3.00;98.30;;;;;;5127307;23;20645;-82
2021/03/06 06:14:44;;;;;;;10.63;6.20;;;3.10;98.30;;;;;;5127300;23;20226;-82
2021/03/06 06:16:46;;;;;;;9.65;6.28;;;3.10;98.30;;;;;;5126200;23;20214;-82
2021/03/06 06:18:49;;;;;;;13.77;6.55;;;3.20;98.30;;;;;;5118064;23;20211;-82
2021/03/06 06:20:51;;;;;;;17.13;7.82;;;3.20;98.30;;;;;;5126532;23;20206;-82
2021/03/06 06:23:10;;;;;;;12.27;6.72;;;3.20;98.30;;;;;;5126446;23;20210;-82
2021/03/06 06:25:30;;;;;;;10.65;6.68;;;3.20;98.30;;;;;;5117982;23;20233;-83
2021/03/06 06:27:59;;;;;;;13.57;6.25;;;3.20;98.30;;;;;;5118319;23;20199;-82
2021/03/06 06:30:10;;;;;;;10.63;5.82;;;3.20;98.30;;;;;;5125895;23;20210;-82
2021/03/06 06:32:13;;;;;;;8.73;6.10;;;3.20;98.30;;;;;;5117932;23;20525;-82
2021/03/06 06:34:16;;;;;;;10.65;5.90;;;3.30;98.30;;;;;;5126633;23;20199;-82
2021/03/06 06:36:35;;;;;;;10.23;6.43;;;3.40;98.30;;;;;;5126949;23;20207;-82
2021/03/06 06:38:44;;;;;;;9.95;6.05;;;3.40;98.30;;;;;;5126698;23;20202;-83
2021/03/06 06:40:55;;;;;;;9.25;6.15;;;3.50;98.30;;;;;;5125255;23;20536;-82
2021/03/06 06:42:57;;;;;;;11.63;6.53;;;3.50;98.30;;;;;;5124912;23;20277;-82
2021/03/06 06:45:00;;;;;;;11.65;6.22;;;3.50;98.30;;;;;;5123946;23;20206;-82
2021/03/06 06:47:11;;;;;;;9.77;6.45;;;3.60;98.30;;;;;;5125670;23;20195;-82
2021/03/06 06:49:13;;;;;;;19.48;7.22;;;3.60;98.30;;;;;;5126534;23;20213;-82
2021/03/06 06:51:16;;;;;;;9.50;5.70;;;3.70;98.30;;;;;;5118402;23;20202;-82
2021/03/06 06:53:25;;;;;;;8.10;5.20;;;3.70;98.30;;;;;;5117568;23;20210;-82
2021/03/06 06:55:36;;;;;;;10.40;4.95;;;3.80;98.30;;;;;;5125761;23;20198;-82
2021/03/06 06:57:49;;;;;;;7.07;5.72;;;3.80;98.30;;;;;;5117697;23;20293;-81
2021/03/06 06:59:57;;;;;;;17.35;11.13;;;3.90;98.30;;;;;;5125670;23;20210;-82
2021/03/06 07:02:03;;;;;;;26.83;17.42;;;4.10;98.30;;;;;;5118015;23;20206;-82
2021/03/06 07:04:08;;;;;;;14.38;8.30;;;4.20;98.30;;;;;;5118189;23;20206;-82
2021/03/06 07:06:13;;;;;;;8.50;5.50;;;4.20;98.30;;;;;;5117925;23;20218;-82
2021/03/06 07:08:23;;;;;;;7.30;5.90;;;4.20;98.30;;;;;;5126837;23;20194;-82
2021/03/06 07:10:32;;;;;;;6.07;5.20;;;4.10;98.30;;;;;;5117336;23;20285;-82
2021/03/06 07:12:35;;;;;;;8.80;5.32;;;4.00;98.30;;;;;;5126806;23;20754;-82
2021/03/06 07:14:38;;;;;;;9.55;6.10;;;4.00;98.30;;;;;;5118794;23;20203;-82
2021/03/06 07:16:56;;;;;;;10.65;6.18;;;4.00;98.30;;;;;;5118414;23;20202;-82
2021/03/06 07:19:00;;;;;;;8.35;5.63;;;4.00;98.30;;;;;;5118955;23;20211;-82
2021/03/06 07:21:02;;;;;;;15.70;6.90;;;4.00;98.30;;;;;;5126874;23;20202;-81
2021/03/06 07:23:18;;;;;;;8.30;5.38;;;4.10;98.30;;;;;;5126732;23;20696;-82
2021/03/06 07:25:25;;;;;;;6.80;5.88;;;4.10;98.30;;;;;;5119268;23;20262;-82
2021/03/06 07:27:29;;;;;;;13.27;7.18;;;4.10;98.30;;;;;;5126472;23;20273;-82
2021/03/06 07:29:34;;;;;;;12.32;6.05;;;4.20;98.30;;;;;;5117795;23;20688;-82
2021/03/06 07:31:38;;;;;;;7.20;5.70;;;4.30;98.30;;;;;;5119247;23;20202;-82
2021/03/06 07:33:44;;;;;;;24.40;14.55;;;4.30;98.30;;;;;;5127108;23;20209;-82
2021/03/06 07:35:48;;;;;;;75.47;39.08;;;4.30;98.30;;;;;;5126933;23;20538;-82
2021/03/06 07:37:58;;;;;;;24.65;12.90;;;4.40;98.30;;;;;;5127639;23;20210;-82
2021/03/06 07:40:04;;;;;;;19.48;5.85;;;4.40;98.30;;;;;;5126628;23;20226;-82
2021/03/06 07:42:20;;;;;;;11.65;5.40;;;4.40;98.30;;;;;;5119718;23;20209;-81
2021/03/06 07:44:25;;;;;;;11.23;5.95;;;4.40;98.30;;;;;;5118592;23;20510;-82
2021/03/06 07:46:28;;;;;;;13.45;6.50;;;4.40;98.30;;;;;;5118182;23;20206;-82
2021/03/06 07:48:40;;;;;;;13.13;5.90;;;4.40;98.30;;;;;;5126756;23;20206;-82
2021/03/06 07:50:47;;;;;;;28.45;7.00;;;4.40;98.30;;;;;;5126896;23;20269;-82
2021/03/06 07:52:55;;;;;;;13.40;6.10;;;4.50;98.30;;;;;;5118823;23;20884;-82
2021/03/06 07:54:58;;;;;;;15.13;5.05;;;4.60;98.30;;;;;;5119643;23;20206;-82
2021/03/06 07:57:00;;;;;;;8.60;5.30;;;4.60;98.30;;;;;;5127377;23;20199;-82
2021/03/06 07:59:06;;;;;;;17.63;6.90;;;4.60;98.30;;;;;;5126715;23;20285;-82
2021/03/06 08:01:24;;;;;;;21.77;6.30;;;4.60;98.30;;;;;;5127418;23;20202;-82
2021/03/06 08:03:38;;;;;;;21.05;13.32;;;4.60;98.30;;;;;;5119243;23;20207;-82
2021/03/06 08:05:47;;;;;;;57.50;32.58;;;4.70;98.30;;;;;;5118821;23;20282;-82
2021/03/06 08:07:49;;;;;;;71.05;35.95;;;4.70;98.30;;;;;;5126543;23;20281;-82
2021/03/06 08:10:10;;;;;;;22.38;10.52;;;4.70;98.30;;;;;;5117684;23;20210;-82
2021/03/06 08:12:30;;;;;;;17.55;6.68;;;4.70;98.30;;;;;;5117824;23;20211;-82
2021/03/06 08:14:41;;;;;;;17.40;7.80;;;4.80;98.30;;;;;;5126890;23;20642;-82
2021/03/06 08:16:45;;;;;;;21.10;8.98;;;4.90;98.30;;;;;;5118179;23;20488;-82
2021/03/06 08:18:47;;;;;;;11.82;5.88;;;4.90;98.30;;;;;;5118392;23;20207;-82
2021/03/06 08:20:52;;;;;;;15.80;5.50;;;4.90;98.30;;;;;;5117672;23;20221;-82
2021/03/06 08:23:23;;;;;;;14.77;5.90;;;4.90;98.30;;;;;;5118219;23;20225;-83
2021/03/06 08:25:27;;;;;;;53.37;26.17;;;5.00;98.30;;;;;;5118007;23;20218;-82
2021/03/06 08:27:32;;;;;;;37.72;23.58;;;5.10;98.30;;;;;;5125380;23;20473;-82
2021/03/06 08:29:36;;;;;;;77.17;35.97;;;5.30;98.30;;;;;;5125737;23;20585;-82
2021/03/06 08:31:39;;;;;;;25.00;10.63;;;5.40;98.30;;;;;;5126385;23;20446;-82
2021/03/06 08:33:44;;;;;;;16.53;6.77;;;5.40;98.30;;;;;;5127063;23;20505;-83
2021/03/06 08:35:48;;;;;;;15.30;5.07;;;5.40;98.30;;;;;;5117960;23;20459;-82
2021/03/06 08:37:51;;;;;;;11.33;5.60;;;5.50;98.30;;;;;;5118438;23;20513;-82
2021/03/06 08:39:57;;;;;;;13.17;5.30;;;5.60;98.30;;;;;;5117905;23;20455;-81
2021/03/06 08:41:59;;;;;;;11.20;5.20;;;5.60;98.30;;;;;;5118515;23;20462;-81
2021/03/06 08:44:01;;;;;;;9.50;5.27;;;5.60;98.30;;;;;;5126424;23;20482;-82
2021/03/06 08:46:10;;;;;;;13.67;5.60;;;5.70;98.30;;;;;;5117747;23;20463;-82
2021/03/06 08:48:13;;;;;;;11.23;5.73;;;5.70;98.30;;;;;;5126196;23;20497;-82
2021/03/06 08:50:20;;;;;;;35.87;17.17;;;5.80;98.30;;;;;;5117410;23;20481;-82
2021/03/06 08:52:27;;;;;;;58.23;27.97;;;5.90;98.30;;;;;;5117395;23;20992;-82
2021/03/06 08:54:38;;;;;;;46.93;21.80;;;5.90;98.30;;;;;;5126231;23;20461;-82
2021/03/06 08:56:43;;;;;;;16.10;8.50;;;6.00;98.30;;;;;;5126981;23;20452;-82
2021/03/06 08:58:49;;;;;;;15.73;6.57;;;6.10;98.30;;;;;;5123422;23;20534;-82
2021/03/06 09:00:53;;;;;;;13.27;6.07;;;6.30;98.30;;;;;;5141732;23;20449;-82
2021/03/06 09:03:14;;;;;;;14.67;6.37;;;6.20;98.30;;;;;;5132280;23;20470;-82
2021/03/06 09:05:23;;;;;;;14.53;5.77;;;6.20;98.30;;;;;;5138883;23;20486;-82
2021/03/06 09:07:27;;;;;;;15.00;4.60;;;6.20;98.30;;;;;;5137799;23;20479;-82
2021/03/06 09:09:32;;;;;;;8.20;4.07;;;6.10;98.30;;;;;;5136778;23;20455;-82
2021/03/06 09:11:35;;;;;;;6.13;4.30;;;6.00;98.30;;;;;;5136194;23;20459;-81
2021/03/06 09:13:37;;;;;;;8.00;4.20;;;6.00;98.30;;;;;;5127267;23;20524;-82
2021/03/06 09:16:00;;;;;;;9.20;4.90;;;6.00;98.30;;;;;;5127515;23;20537;-82
2021/03/06 09:18:06;;;;;;;9.80;4.50;;;6.10;98.30;;;;;;5110862;23;20470;-82
2021/03/06 09:20:13;;;;;;;8.63;5.07;;;6.10;98.30;;;;;;5127387;23;20459;-82
2021/03/06 09:22:15;;;;;;;5.67;4.10;;;6.20;98.30;;;;;;5127055;23;20456;-82
2021/03/06 09:24:19;;;;;;;12.50;4.80;;;6.20;98.30;;;;;;5127419;23;20477;-82
2021/03/06 09:26:25;;;;;;;11.00;4.50;;;6.20;98.30;;;;;;5127613;23;20515;-82
2021/03/06 09:28:29;;;;;;;7.67;4.73;;;6.20;98.30;;;;;;5119126;23;20488;-82
2021/03/06 09:30:34;;;;;;;7.80;4.40;;;6.20;98.30;;;;;;5118848;23;20455;-82
2021/03/06 09:32:36;;;;;;;7.03;4.50;;;6.30;98.30;;;;;;5127286;23;20541;-83
2021/03/06 09:34:42;;;;;;;8.70;5.00;;;6.30;98.30;;;;;;5119231;23;20507;-82
2021/03/06 09:36:45;;;;;;;7.60;3.63;;;6.30;98.30;;;;;;5126636;23;20476;-81
2021/03/06 09:38:49;;;;;;;7.80;3.70;;;6.30;98.30;;;;;;5124218;23;20547;-81
2021/03/06 09:40:52;;;;;;;7.83;3.90;;;6.20;98.30;;;;;;5116555;23;20456;-82
2021/03/06 09:42:55;;;;;;;5.83;3.30;;;6.20;98.30;;;;;;5116279;23;21084;-81
2021/03/06 09:44:58;;;;;;;9.17;4.17;;;6.10;98.30;;;;;;5116249;23;20461;-81
2021/03/06 09:47:01;;;;;;;6.83;3.73;;;6.10;98.30;;;;;;5123788;23;20815;-81
2021/03/06 09:49:05;;;;;;;5.63;3.50;;;6.10;98.30;;;;;;5115806;23;20795;-81
2021/03/06 09:51:08;;;;;;;8.93;3.60;;;6.10;98.30;;;;;;5117352;23;20542;-81
2021/03/06 09:53:18;;;;;;;6.63;3.50;;;6.10;98.30;;;;;;5124378;23;20480;-81
2021/03/06 09:55:20;;;;;;;5.77;3.80;;;6.20;98.30;;;;;;5116693;23;20490;-81
2021/03/06 09:57:24;;;;;;;9.30;4.40;;;6.20;98.30;;;;;;5124271;23;20463;-81
2021/03/06 09:59:27;;;;;;;5.00;3.70;;;6.20;98.30;;;;;;5115227;23;20464;-82
2021/03/06 10:01:30;;;;;;;6.20;3.37;;;6.30;98.30;;;;;;5124452;23;20460;-82
2021/03/06 10:03:33;;;;;;;7.10;4.00;;;6.30;98.30;;;;;;5124901;23;20526;-82
2021/03/06 10:05:36;;;;;;;8.40;4.17;;;6.40;98.30;;;;;;5116895;23;20506;-80
2021/03/06 10:07:41;;;;;;;10.57;4.00;;;6.30;98.30;;;;;;5125984;23;20460;-81
2021/03/06 10:09:44;;;;;;;7.60;4.80;;;6.30;98.30;;;;;;5125193;23;20448;-80
2021/03/06 10:11:48;;;;;;;7.43;4.37;;;6.30;98.30;;;;;;5118347;23;20964;-80
2021/03/06 10:13:52;;;;;;;40.20;23.37;;;6.50;98.30;;;;;;5117633;23;20519;-81
2021/03/06 10:15:56;;;;;;;29.97;16.00;;;6.60;98.30;;;;;;5117912;23;20465;-81
2021/03/06 10:18:05;;;;;;;14.60;7.40;;;6.60;98.30;;;;;;5117378;23;21171;-81
2021/03/06 10:20:09;;;;;;;6.67;4.93;;;6.60;98.30;;;;;;5125573;23;20777;-81
2021/03/06 10:22:15;;;;;;;9.93;5.97;;;6.60;98.30;;;;;;5127917;23;20468;-81
2021/03/06 10:24:17;;;;;;;8.00;5.13;;;6.50;98.30;;;;;;5119050;23;20460;-81
2021/03/06 10:26:22;;;;;;;10.50;6.20;;;6.50;98.30;;;;;;5127824;23;20457;-81
2021/03/06 10:28:31;;;;;;;9.73;5.80;;;6.60;98.30;;;;;;5120250;23;20547;-81
2021/03/06 10:30:42;;;;;;;8.10;5.60;;;6.60;98.30;;;;;;5119606;23;20453;-81
2021/03/06 10:32:45;;;;;;;18.60;5.70;;;6.60;98.30;;;;;;5129393;23;20450;-81
2021/03/06 10:34:49;;;;;;;9.90;5.80;;;6.60;98.30;;;;;;5128377;23;20453;-81
2021/03/06 10:37:09;;;;;;;8.30;5.40;;;6.60;98.30;;;;;;5128084;23;20444;-81
2021/03/06 10:39:16;;;;;;;11.20;5.10;;;6.60;98.30;;;;;;5127275;23;20465;-83
2021/03/06 10:41:19;;;;;;;10.03;4.70;;;6.70;98.30;;;;;;5128651;23;20495;-81
2021/03/06 10:43:30;;;;;;;5.97;4.53;;;6.70;98.30;;;;;;5128870;23;20469;-81
2021/03/06 10:45:33;;;;;;;5.87;4.00;;;6.80;98.30;;;;;;5120802;23;20784;-81
2021/03/06 10:47:46;;;;;;;8.23;4.60;;;6.80;98.30;;;;;;5118691;23;20544;-81
2021/03/06 10:49:49;;;;;;;7.57;4.73;;;6.80;98.30;;;;;;5127007;23;20449;-80
2021/03/06 10:51:53;;;;;;;6.33;4.00;;;6.70;98.30;;;;;;5127668;23;20511;-80
2021/03/06 10:54:02;;;;;;;7.07;4.23;;;6.70;98.30;;;;;;5119121;23;20457;-81